This is the latest recevied weather packets stored in our database for station/object KG4GJX. If no packets are shown the sender has not sent any weather packets the latest 10 day(s).
| Time | Temp. | Humidity | Pressure | Rain* | Wind** | Luminosity | Snow |
|---|---|---|---|---|---|---|---|
| 1788645164 | 26.67° C | 79% | 1013.2 hPa | 0 mm | - | - | - |
| 1788644502 | 27.22° C | 77% | 1013.5 hPa | 0 mm | - | - | - |
| 1788643840 | 27.22° C | 77% | 1013.5 hPa | 0 mm | - | - | - |
| 1788643177 | 27.78° C | 74% | 1013.8 hPa | 0 mm | - | - | - |
| 1788642514 | 27.78° C | 70% | 1013.8 hPa | 0 mm | - | - | - |
| 1788641852 | 28.33° C | 67% | 1013.8 hPa | 0 mm | - | - | - |
| 1788641189 | 27.78° C | 67% | 1013.8 hPa | 0 mm | - | - | - |
| 1788640527 | 27.22° C | 66% | 1013.8 hPa | 0 mm | - | - | - |
| 1788639865 | 27.22° C | 67% | 1014.2 hPa | 0 mm | - | - | - |
| 1788639202 | 27.78° C | 68% | 1014.5 hPa | 0 mm | - | - | - |
| 1788638540 | 27.78° C | 67% | 1015.2 hPa | 0 mm | - | - | - |
| 1788637878 | 28.33° C | 67% | 1014.9 hPa | 0 mm | - | - | - |
| 1788637215 | 28.89° C | 68% | 1014.5 hPa | 0 mm | - | - | - |
| 1788636553 | 29.44° C | 68% | 1014.2 hPa | 0 mm | - | - | - |
| 1788635890 | 30.56° C | 66% | 1014.5 hPa | 0 mm | - | - | - |
| 1788635228 | 34.44° C | 58% | 1014.2 hPa | 0 mm | - | - | - |
| 1788634566 | 35.56° C | 53% | 1014.2 hPa | 0 mm | - | - | - |
| 1788633903 | 35.56° C | 51% | 1014.2 hPa | 0 mm | - | - | - |
| 1788633250 | 36.11° C | 48% | 1014.2 hPa | 0 mm | - | - | - |
| 1788632579 | 35.56° C | 50% | 1013.8 hPa | 0 mm | - | - | - |
| 1788631916 | 35° C | 52% | 1014.2 hPa | 0 mm | - | - | - |
| 1788631254 | 35° C | 52% | 1014.2 hPa | 0 mm | - | - | - |
| 1788630591 | 34.44° C | 54% | 1014.5 hPa | 0 mm | - | - | - |
| 1788629929 | 34.44° C | 54% | 1014.9 hPa | 0 mm | - | - | - |
| 1788629267 | 33.33° C | 60% | 1014.5 hPa | 0 mm | - | - | - |
* Rain latest hour (hover to see other rain measurements)
** Current wind speed in m/s (hover to see current wind gust speed)